createdAt,value
2023-05-04T00:01:34.050Z,100719.94
2023-05-04T00:04:36.456Z,100707.63
2023-05-04T00:07:38.904Z,100705.37
2023-05-04T00:10:41.542Z,100709.69
2023-05-04T00:13:43.721Z,100703.66
2023-05-04T00:16:46.212Z,100702.84
2023-05-04T00:19:48.435Z,100703.31
2023-05-04T00:22:50.926Z,100699.81
2023-05-04T00:25:53.126Z,100692.13
2023-05-04T00:28:55.848Z,100700.47
2023-05-04T00:31:58.146Z,100692.31
2023-05-04T00:35:00.677Z,100685.75
2023-05-04T00:38:04.996Z,100692.31
2023-05-04T00:41:07.401Z,100690.87
2023-05-04T00:44:09.576Z,100695.31
2023-05-04T00:47:13.224Z,100701.37
2023-05-04T00:50:15.496Z,100703.31
2023-05-04T00:53:17.968Z,100703.91
2023-05-04T00:56:23.928Z,100705.84
2023-05-04T00:59:26.370Z,100698.50
2023-05-04T01:02:28.615Z,100699.62
2023-05-04T01:05:36.306Z,100699.78
2023-05-04T01:08:45.000Z,100705.69
2023-05-04T01:11:52.887Z,100702.47
2023-05-04T01:14:56.332Z,100695.44
2023-05-04T01:17:58.824Z,100698.00
2023-05-04T01:21:01.042Z,100690.34
2023-05-04T01:24:03.580Z,100694.44
2023-05-04T01:27:09.385Z,100686.50
2023-05-04T01:30:16.968Z,100686.94
2023-05-04T01:33:21.082Z,100693.00
2023-05-04T01:36:23.822Z,100693.63
2023-05-04T01:39:26.048Z,100692.50
2023-05-04T01:42:29.566Z,100691.53
2023-05-04T01:45:31.980Z,100698.25
2023-05-04T01:48:34.370Z,100695.34
2023-05-04T01:51:36.616Z,100691.97
2023-05-04T01:54:39.141Z,100688.03
2023-05-04T01:57:41.365Z,100694.69
2023-05-04T02:00:44.084Z,100695.03
2023-05-04T02:03:46.620Z,100689.31
2023-05-04T02:06:49.087Z,100680.00
2023-05-04T02:09:52.785Z,100688.16
2023-05-04T02:12:55.350Z,100692.31
2023-05-04T02:15:58.247Z,100691.37
2023-05-04T02:19:00.506Z,100692.78
2023-05-04T02:22:02.994Z,100691.03
2023-05-04T02:25:06.214Z,100690.03
2023-05-04T02:28:08.713Z,100688.16
2023-05-04T02:31:12.737Z,100686.28
2023-05-04T02:34:15.229Z,100688.00
2023-05-04T02:37:22.300Z,100683.03
2023-05-04T02:40:24.602Z,100690.50
2023-05-04T02:43:27.125Z,100687.09
2023-05-04T02:46:29.438Z,100686.94
2023-05-04T02:49:33.134Z,100695.22
2023-05-04T02:52:35.275Z,100684.03
2023-05-04T02:55:37.755Z,100698.25
2023-05-04T02:58:39.917Z,100689.72
2023-05-04T03:01:42.367Z,100694.97
2023-05-04T03:04:44.732Z,100688.75
2023-05-04T03:07:47.713Z,100690.31
2023-05-04T03:10:50.301Z,100687.91
2023-05-04T03:13:52.753Z,100692.94
2023-05-04T03:16:55.015Z,100692.78
2023-05-04T03:19:57.617Z,100692.28
2023-05-04T03:23:00.484Z,100689.28
2023-05-04T03:26:03.127Z,100690.47
2023-05-04T03:29:06.127Z,100693.19
2023-05-04T03:32:08.722Z,100693.47
2023-05-04T03:38:31.761Z,100693.78
2023-05-04T03:41:34.425Z,100701.44
2023-05-04T03:44:36.973Z,100701.87
2023-05-04T03:47:39.237Z,100707.09
2023-05-04T03:50:41.773Z,100700.28
2023-05-04T03:53:44.937Z,100715.84
2023-05-04T03:56:48.426Z,100717.91
2023-05-04T03:59:51.498Z,100714.28
2023-05-04T04:02:54.075Z,100712.88
2023-05-04T04:05:57.537Z,100712.88
2023-05-04T04:09:00.483Z,100714.50
2023-05-04T04:12:03.101Z,100712.75
2023-05-04T04:15:05.719Z,100720.47
2023-05-04T04:18:08.309Z,100713.66
2023-05-04T04:21:10.644Z,100709.53
2023-05-04T04:24:13.166Z,100723.75
2023-05-04T04:27:15.426Z,100725.72
2023-05-04T04:30:18.008Z,100720.50
2023-05-04T04:33:20.276Z,100726.94
2023-05-04T04:36:22.924Z,100724.16
2023-05-04T04:39:25.741Z,100722.91
2023-05-04T04:42:28.197Z,100728.69
2023-05-04T04:45:31.812Z,100727.31
2023-05-04T04:48:35.578Z,100735.28
2023-05-04T04:51:37.718Z,100734.81
2023-05-04T04:54:40.127Z,100739.00
2023-05-04T04:57:42.242Z,100735.53
2023-05-04T05:00:45.312Z,100743.56
2023-05-04T05:03:49.059Z,100740.19
2023-05-04T05:06:51.600Z,100737.34
2023-05-04T05:09:53.766Z,100746.47
2023-05-04T05:12:56.314Z,100737.03
2023-05-04T05:15:58.471Z,100741.97
2023-05-04T05:19:01.202Z,100741.06
2023-05-04T05:22:04.692Z,100736.97
2023-05-04T05:25:08.065Z,100739.84
2023-05-04T05:28:10.641Z,100739.06
2023-05-04T05:31:13.398Z,100742.88
2023-05-04T05:34:16.170Z,100741.47
2023-05-04T05:37:18.620Z,100742.25
2023-05-04T05:40:22.334Z,100744.19
2023-05-04T05:43:24.856Z,100750.72
2023-05-04T05:46:28.131Z,100743.69
2023-05-04T05:49:30.990Z,100749.44
2023-05-04T05:52:33.702Z,100743.34
2023-05-04T05:55:36.532Z,100744.94
2023-05-04T05:58:39.558Z,100748.94
2023-05-04T06:01:42.621Z,100753.09
2023-05-04T06:04:45.221Z,100757.88
2023-05-04T06:07:48.865Z,100760.09
2023-05-04T06:10:54.690Z,100761.53
2023-05-04T06:13:56.936Z,100764.41
2023-05-04T06:16:59.521Z,100765.81
2023-05-04T06:20:04.807Z,100768.31
2023-05-04T06:23:09.231Z,100767.53
2023-05-04T06:26:11.438Z,100766.84
2023-05-04T06:29:14.070Z,100768.72
2023-05-04T06:32:16.761Z,100773.53
2023-05-04T06:35:20.523Z,100773.03
2023-05-04T06:38:22.974Z,100775.41
2023-05-04T06:41:26.964Z,100774.91
2023-05-04T06:44:29.321Z,100777.81
2023-05-04T06:47:34.823Z,100778.38
2023-05-04T06:50:37.159Z,100780.09
2023-05-04T06:53:40.001Z,100777.72
2023-05-04T06:56:42.236Z,100779.66
2023-05-04T06:59:44.836Z,100783.16
2023-05-04T07:02:47.329Z,100791.16
2023-05-04T07:05:51.107Z,100783.59
2023-05-04T07:08:53.411Z,100783.44
2023-05-04T07:11:56.023Z,100778.50
2023-05-04T07:14:58.195Z,100781.06
2023-05-04T07:18:01.459Z,100783.09
2023-05-04T07:21:22.001Z,100787.06
2023-05-04T07:24:29.762Z,100780.38
2023-05-04T07:27:32.148Z,100778.88
2023-05-04T07:30:35.234Z,100785.09
2023-05-04T07:33:37.441Z,100793.00
2023-05-04T07:36:42.038Z,100788.56
2023-05-04T07:39:45.685Z,100796.56
2023-05-04T07:45:53.553Z,100797.94
2023-05-04T07:48:56.449Z,100794.72
2023-05-04T07:51:58.898Z,100791.38
2023-05-04T07:55:01.430Z,100789.03
2023-05-04T07:58:03.619Z,100795.38
2023-05-04T08:01:06.359Z,100784.16
2023-05-04T08:04:08.894Z,100783.56
2023-05-04T08:07:11.022Z,100775.28
2023-05-04T08:10:13.430Z,100780.34
2023-05-04T08:13:15.937Z,100788.00
2023-05-04T08:16:18.694Z,100783.06
2023-05-04T08:19:22.167Z,100785.03
2023-05-04T08:22:24.769Z,100788.69
2023-05-04T08:25:27.006Z,100797.22
2023-05-04T08:28:31.161Z,100803.69
2023-05-04T08:31:35.096Z,100796.66
2023-05-04T08:34:38.436Z,100793.13
2023-05-04T08:37:40.919Z,100805.47
2023-05-04T08:40:51.065Z,100798.16
2023-05-04T08:43:53.380Z,100802.31
2023-05-04T08:46:56.913Z,100800.41
2023-05-04T08:49:59.129Z,100791.66
2023-05-04T08:53:05.678Z,100792.50
2023-05-04T08:56:09.622Z,100791.12
2023-05-04T08:59:18.992Z,100796.53
2023-05-04T09:02:22.909Z,100783.03
2023-05-04T09:05:28.584Z,100793.91
2023-05-04T09:08:31.343Z,100781.78
2023-05-04T09:11:33.873Z,100784.06
2023-05-04T09:14:36.643Z,100779.78
2023-05-04T09:17:51.012Z,100787.47
2023-05-04T09:20:59.426Z,100781.84
2023-05-04T09:24:02.192Z,100782.50
2023-05-04T09:27:11.314Z,100774.12
2023-05-04T09:30:13.903Z,100774.50
2023-05-04T09:33:16.697Z,100777.66
2023-05-04T09:36:20.991Z,100774.81
2023-05-04T09:39:23.240Z,100770.81
2023-05-04T09:42:26.660Z,100768.00
2023-05-04T09:46:01.269Z,100768.81
2023-05-04T09:49:07.872Z,100765.91
2023-05-04T09:52:11.908Z,100763.63
2023-05-04T09:55:16.407Z,100769.06
2023-05-04T09:58:19.270Z,100752.66
2023-05-04T10:01:21.880Z,100755.16
2023-05-04T10:04:25.712Z,100753.03
2023-05-04T10:07:31.525Z,100756.00
2023-05-04T10:10:35.912Z,100744.75
2023-05-04T10:13:38.062Z,100741.94
2023-05-04T10:16:51.574Z,100734.69
2023-05-04T10:20:18.235Z,100741.56
2023-05-04T10:23:45.900Z,100734.28
2023-05-04T10:27:08.287Z,100734.47
2023-05-04T10:30:14.234Z,100724.91
2023-05-04T10:33:16.467Z,100727.34
2023-05-04T10:36:19.126Z,100717.09
2023-05-04T10:39:23.012Z,100718.22
2023-05-04T10:42:25.501Z,100715.63
2023-05-04T10:45:41.693Z,100719.69
2023-05-04T10:48:44.668Z,100713.28
2023-05-04T10:51:49.621Z,100710.47
2023-05-04T10:54:59.813Z,100713.47
2023-05-04T10:58:02.154Z,100710.56
2023-05-04T11:01:12.706Z,100710.00
2023-05-04T11:04:20.762Z,100695.47
2023-05-04T11:07:33.870Z,100700.81
2023-05-04T11:10:36.276Z,100689.81
2023-05-04T11:13:51.855Z,100687.94
2023-05-04T11:20:22.918Z,100677.72
2023-05-04T11:23:25.662Z,100675.16
2023-05-04T11:26:28.758Z,100671.59
2023-05-04T11:29:31.142Z,100665.41
2023-05-04T11:32:46.662Z,100667.00
2023-05-04T11:35:49.065Z,100664.78
2023-05-04T11:38:51.588Z,100664.44
2023-05-04T11:41:54.321Z,100664.94
2023-05-04T11:44:56.977Z,100661.78
2023-05-04T11:48:00.371Z,100659.72
2023-05-04T11:51:03.793Z,100660.34
2023-05-04T11:54:07.153Z,100661.72
2023-05-04T11:57:09.618Z,100659.19
2023-05-04T12:00:12.428Z,100650.13
2023-05-04T12:03:39.780Z,100652.31
2023-05-04T12:06:50.717Z,100658.66
2023-05-04T12:09:53.688Z,100651.63
2023-05-04T12:12:56.108Z,100645.22
2023-05-04T12:16:11.663Z,100647.66
2023-05-04T12:19:14.007Z,100645.72
2023-05-04T12:22:17.077Z,100650.22
2023-05-04T12:25:19.768Z,100638.47
2023-05-04T12:28:25.274Z,100634.91
2023-05-04T12:31:28.528Z,100632.84
2023-05-04T12:34:31.717Z,100621.19
2023-05-04T12:37:35.748Z,100637.13
2023-05-04T12:40:39.076Z,100624.09
2023-05-04T12:43:41.473Z,100631.44
2023-05-04T12:46:43.905Z,100627.53
2023-05-04T12:49:46.063Z,100625.06
2023-05-04T12:52:48.901Z,100622.34
2023-05-04T12:55:51.314Z,100614.41
2023-05-04T12:58:53.959Z,100602.87
2023-05-04T13:01:56.109Z,100599.41
2023-05-04T13:04:58.572Z,100616.59
2023-05-04T13:08:00.905Z,100621.16
2023-05-04T13:11:03.440Z,100615.75
2023-05-04T13:14:05.852Z,100614.88
2023-05-04T13:17:08.397Z,100608.44
2023-05-04T13:20:11.724Z,100607.56
2023-05-04T13:23:14.307Z,100597.16
2023-05-04T13:26:16.675Z,100595.56
2023-05-04T13:29:19.089Z,100602.63
2023-05-04T13:32:21.447Z,100596.16
2023-05-04T13:35:24.138Z,100596.94
2023-05-04T13:38:27.691Z,100595.00
2023-05-04T13:41:31.014Z,100586.88
2023-05-04T13:44:33.259Z,100582.63
2023-05-04T13:47:40.074Z,100583.00
2023-05-04T13:50:42.397Z,100573.06
2023-05-04T13:53:44.871Z,100569.37
2023-05-04T13:56:48.458Z,100570.19
2023-05-04T14:00:02.818Z,100567.06
2023-05-04T14:03:12.754Z,100563.47
2023-05-04T14:06:15.325Z,100572.84
2023-05-04T14:09:18.536Z,100575.87
2023-05-04T14:12:21.610Z,100573.88
2023-05-04T14:15:23.998Z,100568.94
2023-05-04T14:18:28.580Z,100568.25
2023-05-04T14:21:30.962Z,100556.41
2023-05-04T14:24:33.533Z,100561.59
2023-05-04T14:27:36.066Z,100573.06
2023-05-04T14:30:38.579Z,100565.38
2023-05-04T14:33:42.118Z,100562.75
2023-05-04T14:36:44.610Z,100569.44
2023-05-04T14:39:47.571Z,100566.81
2023-05-04T14:42:50.071Z,100559.75
2023-05-04T14:45:53.138Z,100561.81
2023-05-04T14:48:55.672Z,100565.44
2023-05-04T14:51:57.857Z,100553.75
2023-05-04T14:55:00.340Z,100555.16
2023-05-04T14:58:02.689Z,100558.75
2023-05-04T15:01:05.955Z,100550.53
2023-05-04T15:04:08.238Z,100552.59
2023-05-04T15:07:10.747Z,100555.50
2023-05-04T15:10:13.667Z,100557.28
2023-05-04T15:13:17.865Z,100551.03
2023-05-04T15:16:20.175Z,100544.44
2023-05-04T15:19:22.795Z,100546.22
2023-05-04T15:22:24.949Z,100551.31
2023-05-04T15:25:27.480Z,100556.44
2023-05-04T15:28:29.614Z,100542.19
2023-05-04T15:31:32.440Z,100553.06
2023-05-04T15:34:34.689Z,100551.91
2023-05-04T15:37:37.121Z,100550.00
2023-05-04T15:40:39.388Z,100548.00
2023-05-04T15:43:42.124Z,100549.00
2023-05-04T15:46:46.627Z,100543.31
2023-05-04T15:49:49.786Z,100549.84
2023-05-04T15:52:52.761Z,100551.19
2023-05-04T15:55:55.345Z,100541.28
2023-05-04T15:58:57.517Z,100532.47
2023-05-04T16:01:59.994Z,100541.63
2023-05-04T16:05:02.581Z,100528.91
2023-05-04T16:08:04.862Z,100539.16
2023-05-04T16:11:08.065Z,100535.69
2023-05-04T16:14:10.863Z,100538.84
2023-05-04T16:17:13.327Z,100539.28
2023-05-04T16:20:15.591Z,100537.56
2023-05-04T16:23:18.301Z,100548.91
2023-05-04T16:26:20.941Z,100536.66
2023-05-04T16:29:24.439Z,100532.91
2023-05-04T16:32:26.932Z,100538.63
2023-05-04T16:35:31.919Z,100541.78
2023-05-04T16:38:34.096Z,100538.81
2023-05-04T16:41:36.681Z,100546.13
2023-05-04T16:44:38.807Z,100543.19
2023-05-04T16:47:43.313Z,100549.47
2023-05-04T16:50:46.157Z,100550.13
2023-05-04T16:53:48.680Z,100557.75
2023-05-04T16:56:52.051Z,100564.41
2023-05-04T16:59:55.961Z,100564.06
2023-05-04T17:02:58.217Z,100550.84
2023-05-04T17:06:00.779Z,100561.34
2023-05-04T17:09:03.964Z,100563.19
2023-05-04T17:12:06.806Z,100565.84
2023-05-04T17:15:09.777Z,100567.50
2023-05-04T17:18:12.218Z,100567.34
2023-05-04T17:21:14.625Z,100567.72
2023-05-04T17:24:18.358Z,100570.66
2023-05-04T17:27:20.700Z,100568.97
2023-05-04T17:30:23.308Z,100566.81
2023-05-04T17:33:25.466Z,100574.84
2023-05-04T17:36:28.397Z,100576.16
2023-05-04T17:39:31.606Z,100577.50
2023-05-04T17:42:34.131Z,100575.47
2023-05-04T17:45:36.336Z,100576.88
2023-05-04T17:48:38.878Z,100588.16
2023-05-04T17:51:41.374Z,100580.22
2023-05-04T17:54:43.846Z,100581.75
2023-05-04T17:57:45.996Z,100593.41
2023-05-04T18:00:50.525Z,100596.50
2023-05-04T18:03:54.733Z,100607.47
2023-05-04T18:06:57.087Z,100609.47
2023-05-04T18:09:59.655Z,100610.50
2023-05-04T18:13:01.845Z,100618.69
2023-05-04T18:16:04.715Z,100613.63
2023-05-04T18:19:06.946Z,100625.94
2023-05-04T18:22:09.731Z,100626.50
2023-05-04T18:25:13.512Z,100624.94
2023-05-04T18:28:16.033Z,100635.53
2023-05-04T18:31:18.922Z,100635.31
2023-05-04T18:34:21.474Z,100630.75
2023-05-04T18:37:24.813Z,100639.59
2023-05-04T18:40:27.323Z,100645.88
2023-05-04T18:43:29.652Z,100646.22
2023-05-04T18:46:32.093Z,100654.63
2023-05-04T18:49:34.513Z,100658.97
2023-05-04T18:52:36.982Z,100656.31
2023-05-04T18:55:39.155Z,100660.50
2023-05-04T18:58:41.607Z,100670.81
2023-05-04T19:01:43.822Z,100669.22
2023-05-04T19:04:47.158Z,100676.72
2023-05-04T19:07:49.473Z,100670.66
2023-05-04T19:10:51.923Z,100680.53
2023-05-04T19:13:54.091Z,100676.72
2023-05-04T19:16:57.439Z,100683.81
2023-05-04T19:19:59.667Z,100684.97
2023-05-04T19:23:02.154Z,100688.81
2023-05-04T19:26:04.379Z,100691.22
2023-05-04T19:29:06.906Z,100692.00
2023-05-04T19:32:22.813Z,100692.09
2023-05-04T19:35:27.047Z,100697.87
2023-05-04T19:38:30.226Z,100697.38
2023-05-04T19:41:32.823Z,100702.38
2023-05-04T19:44:35.311Z,100698.19
2023-05-04T19:47:38.610Z,100699.06
2023-05-04T19:50:40.975Z,100696.88
2023-05-04T19:53:43.478Z,100695.13
2023-05-04T19:56:46.326Z,100695.38
2023-05-04T19:59:48.900Z,100697.50
2023-05-04T20:02:51.245Z,100695.44
2023-05-04T20:05:53.966Z,100695.44
2023-05-04T20:08:56.225Z,100689.19
2023-05-04T20:11:58.774Z,100688.37
2023-05-04T20:15:01.035Z,100693.12
2023-05-04T20:18:03.681Z,100691.81
2023-05-04T20:21:05.850Z,100696.66
2023-05-04T20:24:08.790Z,100697.34
2023-05-04T20:27:11.105Z,100698.47
2023-05-04T20:30:13.606Z,100705.00
2023-05-04T20:33:16.134Z,100698.91
2023-05-04T20:36:18.863Z,100693.38
2023-05-04T20:39:21.613Z,100694.00
2023-05-04T20:42:24.552Z,100699.62
2023-05-04T20:45:26.771Z,100699.34
2023-05-04T20:48:29.342Z,100699.34
2023-05-04T20:51:32.391Z,100698.88
2023-05-04T20:54:34.853Z,100701.94
2023-05-04T20:57:37.120Z,100707.16
2023-05-04T21:00:40.082Z,100714.03
2023-05-04T21:03:42.534Z,100717.41
2023-05-04T21:06:47.436Z,100717.25
2023-05-04T21:09:50.447Z,100723.62
2023-05-04T21:12:53.007Z,100725.06
2023-05-04T21:15:55.384Z,100723.12
2023-05-04T21:18:57.915Z,100718.19
2023-05-04T21:22:00.346Z,100718.19
2023-05-04T21:25:03.974Z,100718.81
2023-05-04T21:28:06.300Z,100725.19
2023-05-04T21:31:09.450Z,100727.25
2023-05-04T21:34:11.661Z,100726.62
2023-05-04T21:37:14.115Z,100728.56
2023-05-04T21:40:16.485Z,100727.09
2023-05-04T21:43:19.000Z,100727.56
2023-05-04T21:46:21.333Z,100730.78
2023-05-04T21:49:23.885Z,100728.37
2023-05-04T21:52:26.296Z,100724.53
2023-05-04T21:55:30.278Z,100727.25
2023-05-04T21:58:32.486Z,100730.28
2023-05-04T22:01:34.905Z,100734.00
2023-05-04T22:04:41.448Z,100734.16
2023-05-04T22:07:43.619Z,100727.09
2023-05-04T22:10:49.125Z,100739.09
2023-05-04T22:13:51.331Z,100742.63
2023-05-04T22:16:54.076Z,100741.19
2023-05-04T22:19:56.420Z,100740.41
2023-05-04T22:22:58.879Z,100744.25
2023-05-04T22:26:01.200Z,100751.59
2023-05-04T22:29:03.744Z,100748.56
2023-05-04T22:32:05.900Z,100743.25
2023-05-04T22:35:09.395Z,100745.50
2023-05-04T22:38:14.161Z,100749.19
2023-05-04T22:41:16.651Z,100757.66
2023-05-04T22:44:18.834Z,100746.63
2023-05-04T22:47:21.378Z,100745.81
2023-05-04T22:50:23.554Z,100747.91
2023-05-04T22:53:26.003Z,100743.94
2023-05-04T22:56:28.319Z,100734.34
2023-05-04T22:59:31.656Z,100730.69
2023-05-04T23:02:33.854Z,100730.19
2023-05-04T23:05:36.450Z,100732.28
2023-05-04T23:08:39.083Z,100736.62
2023-05-04T23:11:41.807Z,100739.34
2023-05-04T23:14:43.993Z,100732.50
2023-05-04T23:17:46.482Z,100736.16
2023-05-04T23:20:48.702Z,100729.94
2023-05-04T23:23:51.950Z,100737.94
2023-05-04T23:26:54.166Z,100735.56
2023-05-04T23:29:56.769Z,100733.78
2023-05-04T23:32:59.114Z,100733.62
2023-05-04T23:36:01.568Z,100725.31
2023-05-04T23:39:03.790Z,100723.69
2023-05-04T23:42:06.280Z,100721.78
2023-05-04T23:45:09.274Z,100709.47
2023-05-04T23:48:11.736Z,100716.19
2023-05-04T23:51:13.943Z,100715.16
2023-05-04T23:54:16.453Z,100718.34
2023-05-04T23:57:18.748Z,100727.63
